createdAt,value
2022-10-02T00:01:44.498Z,189.41833
2022-10-02T00:06:46.144Z,177.33333
2022-10-02T00:11:47.841Z,175.57895
2022-10-02T00:16:49.577Z,172.99628
2022-10-02T00:21:51.260Z,174.71161
2022-10-02T00:26:52.870Z,182.75969
2022-10-02T00:31:54.507Z,176.45283
2022-10-02T00:36:56.185Z,172.99628
2022-10-02T00:41:57.752Z,171.30627
2022-10-02T00:46:59.374Z,168
2022-10-02T00:52:00.975Z,178.22053
2022-10-02T00:57:02.683Z,171.30627
2022-10-02T01:02:04.347Z,169.64103
2022-10-02T01:07:05.992Z,166.38267
2022-10-02T01:12:07.599Z,170.47059
2022-10-02T01:17:09.176Z,172.14815
2022-10-02T01:22:10.853Z,176.45283
2022-10-02T01:27:12.433Z,180.01533
2022-10-02T01:32:14.049Z,183.68872
2022-10-02T01:37:15.650Z,183.68872
2022-10-02T01:42:17.296Z,180.01533
2022-10-02T01:47:18.877Z,185.56863
2022-10-02T01:52:20.526Z,180.01533
2022-10-02T01:57:22.123Z,177.33333
2022-10-02T02:02:23.822Z,177.33333
2022-10-02T02:07:25.487Z,172.99628
2022-10-02T02:12:27.112Z,181.83784
2022-10-02T02:17:28.681Z,179.1145
2022-10-02T02:22:30.270Z,176.45283
2022-10-02T02:27:31.846Z,177.33333
2022-10-02T02:32:33.613Z,175.57895
2022-10-02T02:37:35.208Z,180.01533
2022-10-02T02:42:36.795Z,179.1145
2022-10-02T02:47:38.376Z,178.22053
2022-10-02T02:52:39.971Z,177.33333
2022-10-02T02:57:41.569Z,178.22053
2022-10-02T03:02:43.186Z,179.1145
2022-10-02T03:07:44.796Z,180.01533
2022-10-02T03:12:46.509Z,181.83784
2022-10-02T03:17:48.118Z,183.68872
2022-10-02T03:22:49.751Z,182.75969
2022-10-02T03:27:51.412Z,181.83784
2022-10-02T03:32:53.086Z,179.1145
2022-10-02T03:37:54.678Z,173.85075
2022-10-02T03:42:56.339Z,183.68872
2022-10-02T03:47:58.010Z,180.92308
2022-10-02T03:52:59.655Z,180.01533
2022-10-02T03:58:01.420Z,183.68872
2022-10-02T04:03:03.027Z,182.75969
2022-10-02T04:08:04.636Z,183.68872
2022-10-02T04:13:06.329Z,183.68872
2022-10-02T04:18:07.918Z,183.68872
2022-10-02T04:23:09.510Z,185.56863
2022-10-02T04:28:11.183Z,180.92308
2022-10-02T04:33:12.784Z,182.75969
2022-10-02T04:38:14.384Z,183.68872
2022-10-02T04:43:15.968Z,189.41833
2022-10-02T04:48:17.567Z,184.625
2022-10-02T04:53:19.150Z,182.75969
2022-10-02T04:58:20.766Z,183.68872
2022-10-02T05:03:22.375Z,193.39271
2022-10-02T05:08:23.986Z,192.3871
2022-10-02T05:13:25.619Z,188.44444
2022-10-02T05:18:27.253Z,184.625
2022-10-02T05:23:28.881Z,187.47826
2022-10-02T05:28:30.604Z,186.51969
2022-10-02T05:33:32.227Z,186.51969
2022-10-02T05:38:33.793Z,186.51969
2022-10-02T05:43:35.415Z,187.47826
2022-10-02T05:48:37.023Z,186.51969
2022-10-02T05:53:38.653Z,191.38956
2022-10-02T05:58:40.228Z,189.41833
2022-10-02T06:03:41.838Z,188.44444
2022-10-02T06:08:43.473Z,185.56863
2022-10-02T06:13:45.084Z,193.39271
2022-10-02T06:18:46.728Z,195.42857
2022-10-02T06:23:48.383Z,194.4065
2022-10-02T06:28:50.020Z,192.3871
2022-10-02T06:33:51.591Z,195.42857
2022-10-02T06:38:53.189Z,197.49794
2022-10-02T06:43:54.777Z,196.45902
2022-10-02T06:48:56.375Z,198.54545
2022-10-02T06:53:57.942Z,196.45902
2022-10-02T06:58:59.606Z,196.45902
2022-10-02T07:04:01.281Z,197.49794
2022-10-02T07:09:02.855Z,199.60166
2022-10-02T07:14:04.499Z,195.42857
2022-10-02T07:19:06.100Z,196.45902
2022-10-02T07:24:07.692Z,196.45902
2022-10-02T07:29:09.280Z,199.60166
2022-10-02T07:34:10.939Z,200.66667
2022-10-02T07:39:12.525Z,195.42857
2022-10-02T07:44:14.116Z,195.42857
2022-10-02T07:49:15.711Z,197.49794
2022-10-02T07:54:17.333Z,197.49794
2022-10-02T07:59:18.921Z,193.39271
2022-10-02T08:04:20.533Z,196.45902
2022-10-02T08:09:22.164Z,196.45902
2022-10-02T08:14:23.768Z,196.45902
2022-10-02T08:19:25.369Z,196.45902
2022-10-02T08:24:26.984Z,195.42857
2022-10-02T08:29:28.573Z,196.45902
2022-10-02T08:34:30.174Z,198.54545
2022-10-02T08:39:31.773Z,199.60166
2022-10-02T08:44:36.306Z,198.54545
2022-10-02T08:49:38.299Z,198.54545
2022-10-02T08:54:39.896Z,199.60166
2022-10-02T08:59:41.496Z,195.42857
2022-10-02T09:04:43.085Z,198.54545
2022-10-02T09:09:44.660Z,199.60166
2022-10-02T09:14:46.260Z,199.60166
2022-10-02T09:19:47.932Z,198.54545
2022-10-02T09:24:49.525Z,202.82353
2022-10-02T09:29:51.123Z,199.60166
2022-10-02T09:34:52.737Z,198.54545
2022-10-02T09:39:54.305Z,196.45902
2022-10-02T09:45:00.350Z,197.49794
2022-10-02T09:50:03.123Z,197.49794
2022-10-02T09:55:04.798Z,198.54545
2022-10-02T10:00:06.391Z,197.49794
2022-10-02T10:05:08.015Z,197.49794
2022-10-02T10:10:09.624Z,196.45902
2022-10-02T10:15:11.208Z,195.42857
2022-10-02T10:20:12.886Z,192.3871
2022-10-02T10:25:14.699Z,195.42857
2022-10-02T10:30:16.349Z,193.39271
2022-10-02T10:35:17.925Z,192.3871
2022-10-02T10:40:19.518Z,194.4065
2022-10-02T10:45:21.121Z,192.3871
2022-10-02T10:50:22.736Z,192.3871
2022-10-02T10:55:24.412Z,189.41833
2022-10-02T11:00:26.049Z,192.3871
2022-10-02T11:05:27.739Z,197.49794
2022-10-02T11:10:29.368Z,201.74059
2022-10-02T11:15:31.003Z,201.74059
2022-10-02T11:20:32.650Z,198.54545
2022-10-02T11:25:34.262Z,198.54545
2022-10-02T11:30:39.503Z,193.39271
2022-10-02T11:35:43.182Z,196.45902
2022-10-02T11:40:44.757Z,193.39271
2022-10-02T11:45:46.463Z,195.42857
2022-10-02T11:50:48.060Z,196.45902
2022-10-02T11:55:49.664Z,199.60166
2022-10-02T12:00:51.269Z,198.54545
2022-10-02T12:05:52.847Z,200.66667
2022-10-02T12:10:54.532Z,199.60166
2022-10-02T12:15:56.232Z,200.66667
2022-10-02T12:20:57.843Z,201.74059
2022-10-02T12:25:59.445Z,200.66667
2022-10-02T12:31:01.047Z,198.54545
2022-10-02T12:36:02.661Z,199.60166
2022-10-02T12:41:04.371Z,199.60166
2022-10-02T12:46:06.006Z,189.41833
2022-10-02T12:51:07.672Z,197.49794
2022-10-02T12:56:09.328Z,201.74059
2022-10-02T13:01:10.960Z,200.66667
2022-10-02T13:06:12.635Z,201.74059
2022-10-02T13:11:14.253Z,200.66667
2022-10-02T13:16:15.874Z,200.66667
2022-10-02T13:21:17.532Z,201.74059
2022-10-02T13:26:19.414Z,201.74059
2022-10-02T13:31:21.096Z,202.82353
2022-10-02T13:36:22.938Z,201.74059
2022-10-02T13:41:24.705Z,202.82353
2022-10-02T13:46:26.298Z,202.82353
2022-10-02T13:51:27.938Z,201.74059
2022-10-02T13:56:29.528Z,199.60166
2022-10-02T14:01:31.249Z,203.91561
2022-10-02T14:06:32.878Z,201.74059
2022-10-02T14:11:34.831Z,202.82353
2022-10-02T14:16:36.765Z,205.01695
2022-10-02T14:21:38.995Z,206.12766
2022-10-02T14:26:40.917Z,205.01695
2022-10-02T14:31:42.604Z,208.37768
2022-10-02T14:36:44.279Z,209.51724
2022-10-02T14:41:49.126Z,210.66667
2022-10-02T14:46:51.057Z,210.66667
2022-10-02T14:51:52.666Z,212.99563
2022-10-02T14:56:54.301Z,210.66667
2022-10-02T15:01:55.917Z,216.56637
2022-10-02T15:06:57.544Z,219
2022-10-02T15:11:59.424Z,219
2022-10-02T15:17:01.246Z,219
2022-10-02T15:22:02.861Z,216.56637
2022-10-02T15:27:04.490Z,216.56637
2022-10-02T15:32:06.058Z,210.66667
2022-10-02T15:37:07.663Z,214.17544
2022-10-02T15:42:09.242Z,212.99563
2022-10-02T15:47:10.809Z,212.99563
2022-10-02T15:52:12.367Z,212.99563
2022-10-02T15:57:13.985Z,214.17544
2022-10-02T16:02:15.663Z,212.99563
2022-10-02T16:07:17.417Z,211.82609
2022-10-02T16:12:19.022Z,216.56637
2022-10-02T16:17:20.634Z,212.99563
2022-10-02T16:22:22.244Z,208.37768
2022-10-02T16:27:23.827Z,203.91561
2022-10-02T16:32:25.422Z,205.01695
2022-10-02T16:37:27.025Z,207.24786
2022-10-02T16:42:28.644Z,205.01695
2022-10-02T16:47:30.253Z,207.24786
2022-10-02T16:52:31.895Z,206.12766
2022-10-02T16:57:33.523Z,205.01695
2022-10-02T17:02:35.175Z,203.91561
2022-10-02T17:07:36.892Z,206.12766
2022-10-02T17:12:38.597Z,205.01695
2022-10-02T17:17:40.260Z,206.12766
2022-10-02T17:22:41.850Z,206.12766
2022-10-02T17:27:43.500Z,203.91561
2022-10-02T17:32:45.081Z,201.74059
2022-10-02T17:37:46.672Z,205.01695
2022-10-02T17:42:48.275Z,200.66667
2022-10-02T17:47:49.942Z,202.82353
2022-10-02T17:52:51.518Z,202.82353
2022-10-02T17:57:53.117Z,205.01695
2022-10-02T18:02:54.687Z,205.01695
2022-10-02T18:07:56.275Z,209.51724
2022-10-02T18:12:57.864Z,215.36564
2022-10-02T18:17:59.509Z,210.66667
2022-10-02T18:23:01.134Z,208.37768
2022-10-02T18:28:02.763Z,201.74059
2022-10-02T18:33:04.413Z,203.91561
2022-10-02T18:38:05.994Z,210.66667
2022-10-02T18:43:07.731Z,209.51724
2022-10-02T18:48:09.357Z,209.51724
2022-10-02T18:53:11.041Z,211.82609
2022-10-02T18:58:12.694Z,206.12766
2022-10-02T19:03:14.329Z,207.24786
2022-10-02T19:08:15.937Z,209.51724
2022-10-02T19:13:18.487Z,216.56637
2022-10-02T19:18:20.211Z,219
2022-10-02T19:23:21.794Z,208.37768
2022-10-02T19:28:23.476Z,214.17544
2022-10-02T19:33:25.108Z,212.99563
2022-10-02T19:38:26.743Z,209.51724
2022-10-02T19:43:28.364Z,210.66667
2022-10-02T19:48:29.986Z,214.17544
2022-10-02T19:53:31.709Z,214.17544
2022-10-02T19:58:33.342Z,230.51163
2022-10-02T20:03:35.041Z,222.73303
2022-10-02T20:08:36.719Z,227.87097
2022-10-02T20:13:38.312Z,224
2022-10-02T20:18:39.933Z,243.02913
2022-10-02T20:23:41.545Z,237.33333
2022-10-02T20:28:43.129Z,224
2022-10-02T20:33:44.737Z,235.94313
2022-10-02T20:38:46.364Z,243.02913
2022-10-02T20:43:50.341Z,233.20188
2022-10-02T20:49:06.936Z,222.73303
2022-10-02T20:54:09.615Z,221.47748
2022-10-02T20:59:11.221Z,229.18519
2022-10-02T21:04:12.907Z,226.56881
2022-10-02T21:09:14.532Z,233.20188
2022-10-02T21:14:16.207Z,230.51163
2022-10-02T21:19:17.834Z,229.18519
2022-10-02T21:24:19.430Z,229.18519
2022-10-02T21:29:21.042Z,231.85047
2022-10-02T21:34:22.667Z,233.20188
2022-10-02T21:39:24.317Z,225.27854
2022-10-02T21:44:25.909Z,217.77778
2022-10-02T21:49:27.507Z,247.44828
2022-10-02T21:54:29.106Z,229.18519
2022-10-02T21:59:30.734Z,227.87097
2022-10-02T22:04:32.326Z,211.82609
2022-10-02T22:09:33.963Z,221.47748
2022-10-02T22:14:35.607Z,209.51724
2022-10-02T22:19:37.210Z,214.17544
2022-10-02T22:24:38.924Z,220.23318
2022-10-02T22:29:40.565Z,212.99563
2022-10-02T22:34:42.179Z,224
2022-10-02T22:39:43.763Z,216.56637
2022-10-02T22:44:45.347Z,215.36564
2022-10-02T22:49:47.003Z,227.87097
2022-10-02T22:54:48.645Z,216.56637
2022-10-02T22:59:50.243Z,209.51724
2022-10-02T23:04:51.926Z,200.66667
2022-10-02T23:09:53.505Z,212.99563
2022-10-02T23:14:55.092Z,202.82353
2022-10-02T23:19:57.309Z,201.74059
2022-10-02T23:24:58.922Z,199.60166
2022-10-02T23:30:00.500Z,194.4065
2022-10-02T23:35:02.076Z,188.44444
2022-10-02T23:40:03.681Z,203.91561
2022-10-02T23:45:05.315Z,200.66667
2022-10-02T23:50:06.898Z,202.82353
2022-10-02T23:55:08.489Z,184.625
